Conroe's Hourly Summary for Saturday, May 12, 2018
Hour Temp
(f)
RH
(%)
Solar Rad.
(MJ/m2)
Rainfall
(in)
Wind
(mph)
5/12/2018 12:00 AM 71 86 0 0 0.56
5/12/2018 1:00 AM 71 87 0 0 0.25
5/12/2018 2:00 AM 70 89 0 0 0.89
5/12/2018 3:00 AM 69 91 0 0 0.88
5/12/2018 4:00 AM 69 92 0 0 0.45
5/12/2018 5:00 AM 69 91 0 0 1.53
5/12/2018 6:00 AM 69 91 0.03 0 1
5/12/2018 7:00 AM 71 83 0.4 0 1.45
5/12/2018 8:00 AM 74 73 1.02 0 3.43
5/12/2018 9:00 AM 77 63 1.53 0 3.39
5/12/2018 10:00 AM 80 55 1.92 0 3.49
5/12/2018 11:00 AM 82 51 2.77 0 4.35
5/12/2018 12:00 PM 84 48 2.38 0 3.48
5/12/2018 1:00 PM 85 46 2.2 0 2.78
5/12/2018 2:00 PM 85 47 2.96 0 5.78
5/12/2018 3:00 PM 85 50 2.42 0 5.79
5/12/2018 4:00 PM 85 50 2.03 0 5.9
5/12/2018 5:00 PM 84 53 1.43 0 5.56
5/12/2018 6:00 PM 83 53 0.81 0 5.77
5/12/2018 7:00 PM 80 57 0.09 0 3.76
5/12/2018 8:00 PM 77 66 0 0 3.63
5/12/2018 9:00 PM 75 73 0 0 2.75
5/12/2018 10:00 PM 74 78 0 0 2.25
5/12/2018 11:00 PM 73 83 0 0 1.73
Data Summary 76 69 21.99 0.00 2.95